Latest Weather Observations for Edinburgh

IDS60801

Issued at 9:01 am CDT Wednesday 10 February 2016 (issued every 30 minutes, with the page automatically refreshed every 10 minutes)

About weather observations | Map of weather stations | Latest weather observations for SA | Other Formats
Station Details ID: 023083 Name: EDINBURGH RAAF Lat: -34.71 Lon: 138.62 Height: 16.54 m
Data from the previous 72 hours. | See also: Recent months at Edinburgh
Date/Time
CDT
Temp
°C
App
Temp
°C
Dew
Point
Rel
Hum
%
Delta-T
°C
Wind Press
QNH
hPa
Press
MSL
hPa
Rain
since 9 am
mm
Dir
 
Spd
km/h
Gust
km/h
Spd
kts
Gust
kts
10/09:00am 23.6 21.9 4.0 28 9.6 WNW 2 6 1 3 1015.1 1015.0 0.0
10/08:30am 22.0 20.3 4.1 31 8.7 WSW 2 7 1 4 1015.2 1015.1 0.0
10/08:00am 20.2 18.2 6.2 40 7.0 NNE 6 7 3 4 1014.8 1014.7 0.0
10/07:30am 18.9 17.5 7.4 47 5.8 ENE 4 7 2 4 1014.7 1014.6 0.0
10/07:00am 18.0 16.1 6.8 48 5.6 E 6 7 3 4 1014.6 1014.5 0.0
10/06:30am 16.5 13.4 7.4 55 4.5 NE 13 13 7 7 1014.2 1014.1 0.0
10/06:00am 16.5 14.2 7.4 55 4.5 NE 9 13 5 7 1014.2 1014.1 0.0
10/05:30am 16.6 14.8 7.3 54 4.6 NNW 6 7 3 4 1014.0 1013.9 0.0
10/05:00am 17.4 15.6 7.2 51 5.1 NNE 6 7 3 4 1013.9 1013.8 0.0
10/04:30am 17.5 16.4 7.0 50 5.2 W 2 7 1 4 1014.0 1013.9 0.0
10/04:00am 18.9 16.9 7.0 46 6.0 SSW 7 9 4 5 1013.9 1013.8 0.0
10/03:30am 18.2 16.0 6.4 46 5.8 SSW 7 11 4 6 1013.8 1013.7 0.0
10/03:00am 18.1 15.8 5.7 44 6.0 WSW 7 9 4 5 1013.7 1013.6 0.0
10/02:30am 18.9 16.9 6.1 43 6.3 WNW 6 6 3 3 1013.9 1013.8 0.0
10/02:00am 19.5 18.3 4.8 38 7.1 CALM 0 7 0 4 1014.1 1014.0 0.0
10/01:30am 22.3 19.4 1.3 25 9.7 SSE 6 7 3 4 1014.4 1014.3 0.0
10/01:00am 23.0 19.9 0.2 22 10.4 SE 6 11 3 6 1014.7 1014.6 0.0
10/12:30am 23.6 19.6 0.7 22 10.6 SSE 11 17 6 9 1015.0 1014.9 0.0
10/12:00am 24.1 19.9 1.7 23 10.6 SE 13 17 7 9 1015.0 1014.9 0.0
 
Date/Time
CDT
Temp
°C
App
Temp
°C
Dew
Point
Rel
Hum
%
Delta-T
°C
Wind Press
QNH
hPa
Press
MSL
hPa
Rain
since 9 am
mm
Dir
 
Spd
km/h
Gust
km/h
Spd
kts
Gust
kts
09/11:30pm 24.4 20.8 3.1 25 10.3 SE 11 17 6 9 1014.8 1014.7 0.0
09/11:00pm 25.0 21.5 3.6 25 10.5 SE 11 17 6 9 1015.0 1014.9 0.0
09/10:30pm 25.7 22.8 4.8 26 10.5 SE 9 11 5 6 1015.1 1015.0 0.0
09/10:00pm 26.3 23.0 4.7 25 10.9 SSE 11 15 6 8 1015.0 1014.9 0.0
09/09:30pm 26.9 23.3 5.2 25 11.1 SE 13 19 7 10 1014.8 1014.7 0.0
09/09:00pm 27.3 23.8 7.2 28 10.7 SE 15 20 8 11 1014.6 1014.5 0.0
09/08:30pm 28.0 25.0 10.7 34 9.8 ESE 17 22 9 12 1014.5 1014.4 0.0
09/08:00pm 30.4 28.4 11.4 31 11.0 ESE 13 20 7 11 1014.4 1014.3 0.0
09/07:30pm 32.1 30.7 13.3 31 11.3 SSW 13 19 7 10 1014.2 1014.1 0.0
09/07:00pm 32.4 29.4 12.1 29 12.0 SW 19 22 10 12 1014.2 1014.1 0.0
09/06:30pm 32.9 30.0 10.9 26 12.8 SSW 17 20 9 11 1014.1 1014.0 0.0
09/06:00pm 33.3 29.6 10.0 24 13.4 SSW 20 26 11 14 1014.2 1014.1 0.0
09/05:30pm 33.5 28.7 8.9 22 13.9 SSW 24 32 13 17 1014.3 1014.2 0.0
09/05:00pm 34.5 29.6 8.3 20 14.7 SSW 24 32 13 17 1014.4 1014.3 0.0
09/04:30pm 34.7 30.0 9.2 21 14.5 SSW 24 30 13 16 1014.7 1014.6 0.0
09/04:00pm 34.4 29.8 10.9 24 13.7 SSW 26 33 14 18 1015.0 1014.9 0.0
09/03:30pm 34.6 30.0 9.8 22 14.3 SSW 24 32 13 17 1015.2 1015.1 0.0
09/03:00pm 35.2 31.7 10.9 23 14.3 SSW 20 30 11 16 1015.4 1015.3 0.0
09/02:30pm 34.1 30.3 11.3 25 13.4 SW 22 26 12 14 1015.8 1015.7 0.0
09/02:00pm 34.7 33.0 9.9 22 14.3 NW 9 13 5 7 1016.2 1016.1 0.0
09/01:30pm 33.7 30.3 6.1 18 14.9 NNW 13 22 7 12 1016.7 1016.6 0.0
09/01:00pm 33.2 29.6 4.9 17 15.0 NE 13 20 7 11 1017.0 1016.9 0.0
09/12:30pm 32.3 29.6 7.2 21 13.7 ENE 11 19 6 10 1017.4 1017.3 0.0
09/12:00pm 31.0 28.3 7.5 23 12.8 N 11 20 6 11 1017.9 1017.8 0.0
09/11:30am 29.9 28.3 8.9 27 11.6 NNE 7 15 4 8 1018.4 1018.3 0.0
09/11:00am 29.4 27.5 9.0 28 11.3 ENE 9 17 5 9 1018.8 1018.7 0.0
09/10:30am 27.6 25.8 9.4 32 10.0 ESE 9 17 5 9 1019.1 1019.0 0.0
09/10:00am 25.7 24.6 9.9 37 8.7 SSE 6 7 3 4 1019.2 1019.1 0.0
09/09:30am 24.7 23.8 10.6 41 7.8 SE 6 9 3 5 1019.5 1019.4 0.0
09/09:00am 22.4 21.4 10.2 46 6.6 SSW 6 7 3 4 1019.6 1019.5 0.0
09/08:30am 21.2 20.2 11.0 52 5.6 S 7 9 4 5 1019.6 1019.5 0.0
09/08:00am 19.3 18.4 11.3 60 4.4 SW 7 9 4 5 1019.4 1019.3 0.0
09/07:30am 16.3 15.9 12.3 77 2.2 WNW 6 7 3 4 1019.4 1019.3 0.0
09/07:00am 14.9 14.4 10.9 77 2.1 NW 4 6 2 3 1019.2 1019.1 0.0
09/06:30am 14.8 14.8 11.0 78 2.0 NW 2 7 1 4 1019.0 1018.9 0.0
09/06:00am 14.3 13.2 10.5 78 2.0 WNW 7 9 4 5 1018.8 1018.7 0.0
09/05:30am 15.6 15.8 10.6 72 2.6 CALM 0 6 0 3 1018.6 1018.5 0.0
09/05:00am 16.6 15.9 11.5 72 2.8 S 6 7 3 4 1018.6 1018.5 0.0
09/04:30am 15.5 14.7 10.9 74 2.4 WNW 6 9 3 5 1018.8 1018.7 0.0
09/04:00am 16.7 15.8 10.5 67 3.3 NNE 6 9 3 5 1018.8 1018.7 0.0
09/03:30am 19.5 17.1 11.3 59 4.5 SE 15 22 8 12 1018.9 1018.8 0.0
09/03:00am 19.4 17.8 11.7 61 4.2 SE 11 19 6 10 1019.1 1019.0 0.0
09/02:30am 17.3 16.7 11.8 70 3.0 NNW 6 7 3 4 1019.2 1019.1 0.0
09/02:00am 16.7 15.8 11.4 71 2.9 WNW 7 9 4 5 1019.4 1019.3 0.0
09/01:30am 17.6 17.0 11.6 68 3.3 N 6 9 3 5 1019.6 1019.5 0.0
09/01:00am 17.8 17.5 11.6 67 3.4 N 4 9 2 5 1019.8 1019.7 0.0
09/12:30am 19.4 18.7 11.9 62 4.1 S 7 11 4 6 1020.0 1019.9 0.0
09/12:00am 19.6 18.0 11.6 60 4.4 SSW 11 15 6 8 1020.1 1020.0 0.0
 
Date/Time
CDT
Temp
°C
App
Temp
°C
Dew
Point
Rel
Hum
%
Delta-T
°C
Wind Press
QNH
hPa
Press
MSL
hPa
Rain
since 9 am
mm
Dir
 
Spd
km/h
Gust
km/h
Spd
kts
Gust
kts
08/11:30pm 19.6 18.0 11.4 59 4.5 SSW 11 13 6 7 1020.2 1020.1 0.0
08/11:00pm 19.1 17.4 11.2 60 4.3 SW 11 13 6 7 1020.3 1020.2 0.0
08/10:30pm 19.4 17.6 10.9 58 4.6 SW 11 13 6 7 1020.3 1020.2 0.0
08/10:00pm 19.6 18.1 10.6 56 4.9 SW 9 11 5 6 1020.1 1020.0 0.0
08/09:30pm 20.7 19.2 9.3 48 6.0 SSW 7 9 4 5 1019.8 1019.7 0.0
08/09:00pm 22.2 20.7 9.0 43 7.0 SSE 7 13 4 7 1019.6 1019.5 0.0
08/08:30pm 23.0 20.4 7.9 38 7.9 ESE 11 17 6 9 1019.4 1019.3 0.0
08/08:00pm 24.3 20.7 6.6 32 9.2 SE 15 24 8 13 1019.1 1019.0 0.0
08/07:30pm 25.4 21.0 6.6 30 9.8 SSE 19 28 10 15 1018.8 1018.7 0.0
08/07:00pm 26.5 22.1 7.5 30 10.1 SE 20 30 11 16 1018.5 1018.4 0.0
08/06:30pm 27.7 22.9 7.5 28 10.8 SE 22 32 12 17 1018.3 1018.2 0.0
08/06:00pm 28.1 23.3 7.4 27 11.1 SSE 22 32 12 17 1018.4 1018.3 0.0
08/05:30pm 29.4 24.7 7.9 26 11.7 SSE 22 33 12 18 1018.3 1018.2 0.0
08/05:00pm 30.0 26.2 9.0 27 11.7 SSE 19 28 10 15 1018.4 1018.3 0.0
08/04:30pm 31.1 27.2 9.3 26 12.2 S 20 30 11 16 1018.4 1018.3 0.0
08/04:00pm 30.9 27.3 9.7 27 12.0 ESE 19 30 10 16 1018.6 1018.5 0.0
08/03:30pm 30.8 27.9 9.6 27 11.9 SE 15 24 8 13 1018.8 1018.7 0.0
08/03:00pm 30.1 27.3 8.5 26 11.9 SE 13 20 7 11 1019.1 1019.0 0.0
08/02:30pm 30.5 27.2 9.4 27 11.8 SSW 17 26 9 14 1019.5 1019.4 0.0
08/02:00pm 30.7 28.8 10.6 29 11.5 SE 11 20 6 11 1019.9 1019.8 0.0
08/01:30pm 29.3 26.6 10.4 31 10.7 S 15 22 8 12 1020.1 1020.0 0.0
08/01:00pm 28.8 26.8 10.0 31 10.6 SE 11 20 6 11 1020.4 1020.3 0.0
08/12:30pm 27.9 25.8 11.0 35 9.6 SE 13 20 7 11 1020.8 1020.7 0.0
08/12:00pm 26.9 25.4 11.8 39 8.6 S 11 19 6 10 1021.1 1021.0 0.0
08/11:30am 25.5 24.4 12.0 43 7.7 WSW 9 19 5 10 1021.5 1021.4 0.0
08/11:00am 24.6 22.8 12.2 46 7.1 SSW 13 19 7 10 1021.8 1021.7 0.0
08/10:30am 23.0 21.1 11.7 49 6.3 SSW 13 17 7 9 1021.9 1021.8 0.0
08/10:00am 21.7 20.0 12.3 55 5.3 SSW 13 20 7 11 1022.0 1021.9 0.0
08/09:30am 21.1 18.6 12.3 57 4.9 S 17 24 9 13 1022.2 1022.1 0.0
08/09:00am 20.0 17.8 12.0 60 4.4 SSE 15 20 8 11 1022.1 1022.0 0.0
08/08:30am 19.2 17.4 12.2 64 3.9 S 13 20 7 11 1022.0 1021.9 0.0
08/08:00am 16.7 16.3 12.3 75 2.4 WSW 6 7 3 4 1021.8 1021.7 0.0
08/07:30am 14.7 14.5 11.7 82 1.6 SW 4 7 2 4 1021.5 1021.4 0.0
08/07:00am 13.2 12.3 10.6 84 1.4 NNW 6 7 3 4 1021.4 1021.3 0.0
08/06:30am 13.5 12.6 10.5 82 1.6 NNW 6 7 3 4 1020.9 1020.8 0.0
08/06:00am 15.3 15.7 11.3 77 2.1 CALM 0 0 0 0 1020.6 1020.5 0.0
08/05:30am 15.1 14.2 10.7 75 2.3 SW 6 7 3 4 1020.5 1020.4 0.0
08/05:00am 16.6 15.7 11.3 71 2.9 SE 7 11 4 6 1020.2 1020.1 0.0
08/04:30am 16.9 16.0 11.4 70 3.0 ESE 7 11 4 6 1020.1 1020.0 0.0
08/04:00am 17.2 16.3 11.5 69 3.1 ESE 7 9 4 5 1020.0 1019.9 0.0
08/03:30am 17.1 16.4 11.4 69 3.1 ESE 6 7 3 4 1019.9 1019.8 0.0
08/03:00am 17.1 16.9 11.8 71 2.9 ESE 4 7 2 4 1020.0 1019.9 0.0
08/02:30am 17.3 16.7 11.6 69 3.1 ESE 6 7 3 4 1019.9 1019.8 0.0
08/02:00am 17.4 18.1 12.1 71 2.9 CALM 0 0 0 0 1020.1 1020.0 0.0
08/01:30am 17.1 17.2 11.6 70 3.0 SW 2 6 1 3 1020.3 1020.2 0.0
08/01:00am 18.5 17.9 11.8 65 3.7 SSE 6 7 3 4 1020.3 1020.2 0.0
08/12:30am 18.6 17.5 12.1 66 3.6 SSE 9 13 5 7 1020.2 1020.1 0.0
08/12:00am 18.8 17.8 12.3 66 3.6 SSE 9 13 5 7 1020.0 1019.9 0.0
 
Date/Time
CDT
Temp
°C
App
Temp
°C
Dew
Point
Rel
Hum
%
Delta-T
°C
Wind Press
QNH
hPa
Press
MSL
hPa
Rain
since 9 am
mm
Dir
 
Spd
km/h
Gust
km/h
Spd
kts
Gust
kts
07/11:30pm 19.4 18.5 12.7 65 3.8 SE 9 15 5 8 1019.9 1019.8 0.0
07/11:00pm 20.0 18.5 13.0 64 4.0 SE 13 17 7 9 1019.8 1019.7 0.0
07/10:30pm 21.1 19.8 13.8 63 4.2 ESE 13 19 7 10 1019.6 1019.5 0.0
07/10:00pm 22.4 21.8 14.5 61 4.6 ESE 11 17 6 9 1019.1 1019.0 0.0
07/09:30pm 23.6 22.7 14.9 58 5.2 ESE 13 17 7 9 1018.6 1018.5 0.0
07/09:00pm 23.7 23.4 16.5 64 4.4 SSW 13 17 7 9 1018.0 1017.9 0.0
07/08:30pm 24.0 23.3 16.3 62 4.7 SW 15 19 8 10 1017.6 1017.5 0.0
07/08:00pm 25.3 23.5 15.6 55 5.9 SW 19 22 10 12 1017.3 1017.2 0.0
07/07:30pm 26.1 23.2 15.2 51 6.6 SW 24 28 13 15 1016.9 1016.8 0.0
07/07:00pm 26.9 23.7 15.3 49 7.0 SW 26 33 14 18 1016.7 1016.6 0.0
07/06:30pm 27.5 23.4 14.8 45 7.7 SW 30 35 16 19 1016.4 1016.3 0.0
07/06:00pm 28.2 24.2 15.1 44 8.0 SW 30 35 16 19 1016.3 1016.2 0.0
07/05:30pm 28.7 24.7 15.2 43 8.2 SW 30 35 16 19 1016.2 1016.1 0.0
07/05:00pm 29.6 25.8 14.6 40 9.1 SW 28 35 15 19 1016.0 1015.9 0.0
07/04:30pm 29.6 26.0 14.2 39 9.3 SW 26 35 14 19 1016.1 1016.0 0.0
07/04:00pm 29.4 25.9 14.4 40 9.1 SW 26 32 14 17 1016.3 1016.2 0.0
07/03:30pm 29.1 25.6 14.5 41 8.8 SW 26 33 14 18 1016.4 1016.3 0.0
07/03:00pm 29.8 26.8 15.9 43 8.6 SW 26 32 14 17 1016.5 1016.4 0.0
07/02:30pm 29.6 26.7 15.0 41 8.9 SW 24 28 13 15 1016.7 1016.6 0.0
07/02:00pm 29.2 26.4 15.3 42 8.5 WSW 24 33 13 18 1017.0 1016.9 0.0
07/01:30pm 28.8 26.6 15.0 43 8.4 SW 20 28 11 15 1017.2 1017.1 0.0
07/01:00pm 27.8 25.5 13.0 40 8.7 WSW 17 22 9 12 1017.3 1017.2 0.0
07/12:30pm 27.8 25.6 12.2 38 9.0 WSW 15 22 8 12 1017.4 1017.3 0.0
07/12:00pm 26.9 25.0 12.9 42 8.2 W 15 22 8 12 1017.5 1017.4 0.0
07/11:30am 25.7 24.6 13.2 46 7.3 SW 11 17 6 9 1017.7 1017.6 0.0
07/11:00am 25.0 24.2 15.0 53 6.0 W 13 19 7 10 1017.8 1017.7 0.0
07/10:30am 24.7 24.2 14.8 54 5.9 W 11 22 6 12 1017.8 1017.7 0.0
07/10:00am 23.9 23.4 15.9 61 4.8 WNW 13 19 7 10 1017.8 1017.7 0.0
07/09:30am 23.1 23.6 14.9 60 4.9 NNW 6 11 3 6 1017.7 1017.6 0.0

Other Formats:

Comma delimited format used in spreadsheet applications
http://www.bom.gov.au/fwo/IDS60801/IDS60801.95676.axf

JavaScript Object Notation format (JSON) in row-major order
http://www.bom.gov.au/fwo/IDS60801/IDS60801.95676.json